Friday, October 20, 2017, 9:22 PM EDT
Back to Local

KFIT, Fitchburg, Fitchburg Municipal Airport

Location: Leominster, MA, United States Lat: 42.552
Local Time: 9:22 PM EDT ( 1:22 GMT) Lon: -71.756
Time Zone: US/Eastern Elev: 347 ft

Show me the last for .
Show Decoded

2017-10-20 20:52 METAR KFIT 210052Z AUTO 34005KT 10SM CLR 15/04 A3012 RMK AO2 SLP199 T01500039 =
2017-10-20 19:52 METAR KFIT 202352Z AUTO 29008KT 10SM CLR 14/04 A3010 RMK AO2 SLP195 T01440044
                 10228 20139 53019 =
2017-10-20 18:52 METAR KFIT 202252Z AUTO 33005KT 10SM CLR 18/03 A3008 RMK AO2 SLP187 T01780028 =
2017-10-20 17:52 METAR KFIT 202152Z AUTO 33008KT 10SM CLR 19/02 A3006 RMK AO2 SLP180 T01940022 =
2017-10-20 16:52 METAR KFIT 202052Z AUTO 33010KT 10SM CLR 22/01 A3005 RMK AO2 PK WND 34026/2003
                 SLP175 T02170011 53006 =
2017-10-20 15:52 METAR KFIT 201952Z AUTO 31012KT 10SM CLR 22/02 A3004 RMK AO2 SLP171 T02220017 =
2017-10-20 14:52 METAR KFIT 201852Z AUTO 32011G18KT 10SM CLR 22/03 A3003 RMK AO2 SLP167 T02220028
                 =
2017-10-20 13:52 METAR KFIT 201752Z AUTO 30016G20KT 10SM CLR 22/03 A3003 RMK AO2 SLP168 T02170033
                 10217 20117 58017 =
2017-10-20 12:52 METAR KFIT 201652Z AUTO 31011G18KT 10SM CLR 21/03 A3005 RMK AO2 SLP177 T02060033
                 =
2017-10-20 11:52 METAR KFIT 201552Z AUTO 32010KT 10SM CLR 19/04 A3007 RMK AO2 SLP183 T01940044 =
2017-10-20 10:52 METAR KFIT 201452Z AUTO 32006G19KT 10SM CLR 18/04 A3008 RMK AO2 SLP185 T01830044
                 50007 =
2017-10-20 09:52 METAR KFIT 201352Z AUTO 33010KT 10SM CLR 17/07 A3009 RMK AO2 SLP189 T01720067 =
2017-10-20 08:52 METAR KFIT 201252Z AUTO VRB03KT 10SM CLR 16/08 A3008 RMK AO2 SLP187 T01560083 =
2017-10-20 07:52 METAR KFIT 201152Z AUTO 00000KT 9SM CLR 12/09 A3006 RMK AO2 SLP180 T01170089
                 10183 20094 53018 =
2017-10-20 06:52 METAR KFIT 201052Z AUTO 28005KT 10SM CLR 10/08 A3003 RMK AO2 SLP170 T01000078 =
2017-10-20 05:52 METAR KFIT 200952Z AUTO 26003KT 10SM CLR 14/09 A3001 RMK AO2 SLP162 T01440089 =
2017-10-20 04:52 METAR KFIT 200852Z AUTO 27004KT 10SM CLR 16/09 A3001 RMK AO2 SLP160 T01610089
                 51011 =
2017-10-20 03:52 METAR KFIT 200752Z AUTO 26004KT 10SM CLR 17/09 A2999 RMK AO2 SLP156 T01670089 =
2017-10-20 02:52 METAR KFIT 200652Z AUTO VRB03KT 10SM CLR 17/08 A2999 RMK AO2 SLP153 T01720083 =
2017-10-20 01:52 METAR KFIT 200552Z AUTO 23009G17KT 10SM CLR 18/08 A2997 RMK AO2 SLP148 T01830083
                 10189 20172 58004 =
2017-10-20 00:52 METAR KFIT 200452Z AUTO 26007G20KT 230V290 10SM CLR 18/08 A2998 RMK AO2 SLP151
                 T01830078 402440044 =
2017-10-19 23:52 METAR KFIT 200352Z AUTO 26010G15KT 10SM CLR 18/08 A2998 RMK AO2 SLP151 T01780078
                 =
2017-10-19 22:52 METAR KFIT 200252Z AUTO 26008KT 230V300 10SM CLR 18/08 A2998 RMK AO2 SLP154
                 T01780083 58001 =
2017-10-19 21:52 METAR KFIT 200152Z AUTO 26010G18KT 10SM CLR 17/09 A3000 RMK AO2 SLP160 T01720089
                 =

Support USWX by starting your Amazon purchase here.